»·PEaware :: DLH767 KBOS-EDDF

DLH767 :: KBOS-EDDF

FLIGHT INFORMATION

Flight Status: Arrived
Operator:
Lufthansa
More flights by this operator :: More flights under this callsign
Pilot: Elias S. (17318)
Aircraft: BOEING 767-300
(B763)
More flights by this aircraft type
Origin: KBOS Logan Intl
United States
Destination: EDDF Frankfurt/Main
Germany
More flights between these airports :: More routes between these airports
Route: EBONY N555A NEEKO NATX SUNOT NATX KESIX IBROD UMBEL LAMSO UL603 SOGPO UT149 OTSOP T149 LIPMI T150 ROLIS
File this flight plan on PilotEdge
Remarks: / L
Altitude:
(Current/Filed)
35,000ft
Speed:
(Current/Filed)
482kts
Departed: 02-Dec-17 07:04 PM
Arrived: 03-Dec-17 12:22 AM
Distance/Time
Traveled:
3177nm/5:18
Distance/Time
To Go:
Arrived

Flight Plot

Page will automatically refresh every two minutes.

Flight plan parsing failed; only flown route is shown


Map Options




Map Legend


Flown Route
Filed Route
Departure Airport
Arrival Airport
Navaid (VOR, NDB)
Fix

Horizontal Profiles

Position Reports

Time Latitude Longitude Heading Altitude Ground
Speed
02-Dec-17 19:08 49.288744 -61.158833 44 34891ft 534kts
02-Dec-17 19:09 49.392918 -60.997585 44 34893ft 534kts
02-Dec-17 19:10 49.497289 -60.834999 44 34895ft 534kts
02-Dec-17 19:11 49.600811 -60.672686 44 34897ft 534kts
02-Dec-17 19:12 49.704583 -60.508930 44 35113ft 533kts
02-Dec-17 19:13 49.807569 -60.345354 45 35151ft 534kts
02-Dec-17 19:14 49.910473 -60.180848 45 34909ft 534kts
02-Dec-17 19:15 50.013360 -60.015286 45 34899ft 534kts
02-Dec-17 19:16 50.115526 -59.849799 45 34893ft 534kts
02-Dec-17 19:17 50.217794 -59.683013 45 34889ft 527kts
02-Dec-17 19:18 50.318809 -59.517267 45 34897ft 530kts
02-Dec-17 19:19 50.419882 -59.350279 45 34898ft 529kts
02-Dec-17 19:20 50.520536 -59.182877 46 34893ft 530kts
02-Dec-17 19:21 50.621029 -59.014627 46 34895ft 530kts
02-Dec-17 19:22 50.721472 -58.845329 45 34896ft 529kts
02-Dec-17 19:23 50.821577 -58.675464 45 34898ft 529kts
02-Dec-17 19:24 50.921466 -58.504812 45 34900ft 529kts
02-Dec-17 19:25 51.019934 -58.335448 46 34899ft 529kts
02-Dec-17 19:26 51.117819 -58.165961 46 34901ft 529kts
02-Dec-17 19:27 51.216845 -57.993318 46 35114ft 529kts
02-Dec-17 19:28 51.315609 -57.819945 46 35136ft 529kts
02-Dec-17 19:29 51.414178 -57.645716 46 35139ft 529kts
02-Dec-17 19:30 51.512732 -57.470298 46 35141ft 529kts
02-Dec-17 19:31 51.610447 -57.295161 47 35135ft 529kts
02-Dec-17 19:32 51.708442 -57.118280 47 35138ft 529kts
02-Dec-17 19:33 51.805729 -56.941441 47 35140ft 529kts
02-Dec-17 19:34 51.902946 -56.763475 47 35149ft 529kts
02-Dec-17 19:35 51.999711 -56.585076 47 35170ft 529kts
02-Dec-17 19:36 52.096509 -56.405338 47 35172ft 529kts
02-Dec-17 19:37 52.192739 -56.225381 48 35161ft 529kts
02-Dec-17 19:38 52.288826 -56.044387 48 35162ft 529kts
02-Dec-17 19:39 52.383255 -55.860774 55 35158ft 529kts
02-Dec-17 19:40 52.455546 -55.651264 63 35166ft 529kts
02-Dec-17 19:41 52.522006 -55.436137 63 35168ft 529kts
02-Dec-17 19:42 52.587581 -55.220129 64 35163ft 529kts
02-Dec-17 19:43 52.652509 -55.004190 64 35165ft 529kts
02-Dec-17 19:44 52.717290 -54.786773 64 35167ft 529kts
02-Dec-17 19:45 52.781599 -54.568957 64 35169ft 529kts
02-Dec-17 19:46 52.845474 -54.350614 64 35171ft 529kts
02-Dec-17 19:47 52.908857 -54.131959 65 35166ft 529kts
02-Dec-17 19:48 52.971752 -53.912955 65 35168ft 529kts
02-Dec-17 19:49 53.034437 -53.692616 65 35170ft 529kts
02-Dec-17 19:50 53.096818 -53.471273 65 35172ft 529kts
02-Dec-17 19:51 53.158575 -53.250071 66 35160ft 528kts
02-Dec-17 19:52 53.219926 -53.028198 66 35162ft 528kts
02-Dec-17 19:53 53.280348 -52.807591 66 35163ft 528kts
02-Dec-17 19:54 53.340665 -52.585245 66 36218ft 526kts
02-Dec-17 19:55 53.400274 -52.363362 66 37276ft 524kts
02-Dec-17 19:56 53.459755 -52.139771 67 37260ft 524kts
02-Dec-17 19:57 53.518696 -51.916022 67 37265ft 524kts
02-Dec-17 19:58 53.576808 -51.693241 67 37266ft 524kts
02-Dec-17 19:59 53.634341 -51.470479 67 37268ft 524kts
02-Dec-17 20:00 53.691919 -51.245321 68 37264ft 524kts
02-Dec-17 20:01 53.749179 -51.019112 68 37266ft 524kts
02-Dec-17 20:02 53.805858 -50.792917 68 37268ft 524kts
02-Dec-17 20:03 53.862092 -50.566172 68 37269ft 524kts
02-Dec-17 20:04 53.918009 -50.338370 69 37270ft 524kts
02-Dec-17 20:05 53.973504 -50.109932 69 37267ft 524kts
02-Dec-17 20:06 54.029690 -49.882210 68 37269ft 524kts
02-Dec-17 20:07 54.086789 -49.654077 68 37271ft 524kts
02-Dec-17 20:08 54.143185 -49.426376 68 37265ft 524kts
02-Dec-17 20:09 54.199288 -49.197471 69 37260ft 524kts
02-Dec-17 20:10 54.255055 -48.967538 69 37262ft 524kts
02-Dec-17 20:11 54.310367 -48.737054 69 37264ft 524kts
02-Dec-17 20:12 54.365051 -48.506755 69 37265ft 524kts
02-Dec-17 20:13 54.419359 -48.275560 71 37267ft 538kts
02-Dec-17 20:14 54.474561 -48.037976 71 37263ft 535kts
02-Dec-17 20:15 54.520034 -47.840243 71 37266ft 536kts
02-Dec-17 20:16 54.583453 -47.561363 71 37268ft 536kts
02-Dec-17 20:17 54.628411 -47.361606 72 37272ft 538kts
02-Dec-17 20:18 54.690721 -47.081067 73 37266ft 537kts
02-Dec-17 20:19 54.743626 -46.840016 73 37269ft 537kts
02-Dec-17 20:20 54.787351 -46.638651 73 37271ft 537kts
02-Dec-17 20:21 54.848162 -46.355287 73 37192ft 537kts
02-Dec-17 20:22 54.891027 -46.153148 74 37188ft 537kts
02-Dec-17 20:23 54.942087 -45.909690 74 37190ft 537kts
02-Dec-17 20:24 54.992687 -45.665483 74 37192ft 537kts
02-Dec-17 20:25 55.042608 -45.421587 74 37195ft 537kts
02-Dec-17 20:26 55.092204 -45.176304 75 37190ft 536kts
02-Dec-17 20:27 55.141402 -44.929910 75 37173ft 536kts
02-Dec-17 20:28 55.189956 -44.683624 75 37182ft 537kts
02-Dec-17 20:29 55.237958 -44.437061 75 37182ft 536kts
02-Dec-17 20:30 55.285559 -44.189386 76 37178ft 535kts
02-Dec-17 20:31 55.332523 -43.941819 76 37181ft 536kts
02-Dec-17 20:32 55.378979 -43.693719 76 37183ft 536kts
02-Dec-17 20:33 55.424936 -43.445007 76 37185ft 536kts
02-Dec-17 20:34 55.470422 -43.195542 77 37181ft 535kts
02-Dec-17 20:35 55.515304 -42.946013 77 37184ft 535kts
02-Dec-17 20:36 55.559746 -42.695543 77 37186ft 535kts
02-Dec-17 20:37 55.603590 -42.445005 77 37188ft 535kts
02-Dec-17 20:38 55.646960 -42.193705 78 37183ft 534kts
02-Dec-17 20:39 55.689877 -41.941455 78 37186ft 535kts
02-Dec-17 20:40 55.732186 -41.689204 78 37188ft 535kts
02-Dec-17 20:41 55.773958 -41.436527 78 37191ft 535kts
02-Dec-17 20:42 55.815133 -41.183821 79 37186ft 534kts
02-Dec-17 20:43 55.855904 -40.929817 79 37189ft 534kts
02-Dec-17 20:44 55.896009 -40.676197 79 37191ft 534kts
02-Dec-17 20:45 55.935689 -40.421427 79 37193ft 534kts
02-Dec-17 20:46 55.974725 -40.166939 80 37189ft 533kts
02-Dec-17 20:47 56.019093 -39.913671 67 37191ft 541kts
02-Dec-17 20:48 56.082429 -39.670597 69 37193ft 541kts
02-Dec-17 20:49 56.143454 -39.424723 69 37182ft 540kts
02-Dec-17 20:50 56.203747 -39.178419 70 37177ft 540kts
02-Dec-17 20:51 56.263481 -38.931579 70 37180ft 540kts
02-Dec-17 20:52 56.322939 -38.683070 70 37182ft 540kts
02-Dec-17 20:53 56.381670 -38.434758 70 37185ft 540kts
02-Dec-17 20:54 56.439241 -38.188538 71 37180ft 539kts
02-Dec-17 20:55 56.497070 -37.938305 71 37183ft 539kts
02-Dec-17 20:56 56.554174 -37.688293 71 37186ft 539kts
02-Dec-17 20:57 56.610945 -37.436767 71 37188ft 539kts
02-Dec-17 20:58 56.667126 -37.184868 72 37184ft 538kts
02-Dec-17 20:59 56.722670 -36.932775 72 37187ft 539kts
02-Dec-17 21:00 56.777843 -36.679307 72 37189ft 539kts
02-Dec-17 21:01 56.832492 -36.425133 72 37191ft 539kts
02-Dec-17 21:02 56.886549 -36.170596 73 37187ft 538kts
02-Dec-17 21:03 56.940007 -35.915676 73 37190ft 538kts
02-Dec-17 21:04 56.992983 -35.659848 73 37192ft 538kts
02-Dec-17 21:05 57.045466 -35.403147 73 37195ft 538kts
02-Dec-17 21:06 57.097349 -35.145653 71 37169ft 544kts
02-Dec-17 21:07 57.150210 -34.880685 71 37185ft 556kts
02-Dec-17 21:08 57.202655 -34.613862 71 37184ft 554kts
02-Dec-17 21:09 57.254078 -34.348586 72 37187ft 555kts
02-Dec-17 21:10 57.305818 -34.077955 72 37181ft 554kts
02-Dec-17 21:11 57.356464 -33.809287 72 37183ft 554kts
02-Dec-17 21:12 57.406525 -33.539964 72 37186ft 555kts
02-Dec-17 21:13 57.456039 -33.269768 73 37178ft 554kts
02-Dec-17 21:14 57.504989 -32.998676 72 37183ft 555kts
02-Dec-17 21:15 57.553387 -32.726752 72 37106ft 556kts
02-Dec-17 21:16 57.601233 -32.453900 72 36974ft 554kts
02-Dec-17 21:17 57.648545 -32.180016 73 36995ft 555kts
02-Dec-17 21:18 57.694196 -31.911660 72 37111ft 528kts
02-Dec-17 21:19 57.738344 -31.648391 72 37138ft 536kts
02-Dec-17 21:20 57.782328 -31.382045 72 38105ft 534kts
02-Dec-17 21:21 57.825484 -31.116784 73 38876ft 533kts
02-Dec-17 21:22 57.868108 -30.850703 73 39135ft 535kts
02-Dec-17 21:23 57.910695 -30.580665 73 39141ft 544kts
02-Dec-17 21:24 57.952988 -30.308187 74 39129ft 543kts
02-Dec-17 21:25 57.992924 -30.034325 80 39126ft 543kts
02-Dec-17 21:26 58.009095 -29.751854 86 39133ft 542kts
02-Dec-17 21:27 58.019717 -29.469463 87 39136ft 542kts
02-Dec-17 21:28 58.029391 -29.185713 88 39129ft 542kts
02-Dec-17 21:29 58.038380 -28.902584 88 39132ft 543kts
02-Dec-17 21:30 58.046779 -28.618006 88 39135ft 543kts
02-Dec-17 21:31 58.054444 -28.337037 89 39136ft 543kts
02-Dec-17 21:32 58.061610 -28.052850 89 39148ft 542kts
02-Dec-17 21:33 58.068035 -27.769445 88 39135ft 543kts
02-Dec-17 21:34 58.073905 -27.484473 88 39135ft 543kts
02-Dec-17 21:35 58.079137 -27.199638 89 39129ft 543kts
02-Dec-17 21:36 58.083720 -26.915276 89 39132ft 543kts
02-Dec-17 21:37 58.087645 -26.632750 89 39135ft 543kts
02-Dec-17 21:38 58.090964 -26.347981 90 39137ft 543kts
02-Dec-17 21:39 58.093662 -26.063032 90 39131ft 543kts
02-Dec-17 21:40 58.095716 -25.777954 90 39133ft 544kts
02-Dec-17 21:41 58.097135 -25.492171 90 39136ft 544kts
02-Dec-17 21:42 58.097920 -25.207385 91 39129ft 543kts
02-Dec-17 21:43 58.098062 -24.922130 91 39132ft 544kts
02-Dec-17 21:44 58.097577 -24.639775 91 39134ft 544kts
02-Dec-17 21:45 58.096448 -24.353934 91 39137ft 544kts
02-Dec-17 21:46 58.094691 -24.068717 92 39131ft 544kts
02-Dec-17 21:47 58.092288 -23.783186 92 39133ft 544kts
02-Dec-17 21:48 58.089257 -23.498617 92 39135ft 544kts
02-Dec-17 21:49 58.085584 -23.213107 93 39128ft 544kts
02-Dec-17 21:50 58.081274 -22.928116 93 39132ft 544kts
02-Dec-17 21:51 58.076267 -22.642956 92 39123ft 547kts
02-Dec-17 21:52 58.070738 -22.357790 93 39138ft 543kts
02-Dec-17 21:53 58.064514 -22.072733 94 39130ft 544kts
02-Dec-17 21:54 58.057673 -21.788612 94 39133ft 544kts
02-Dec-17 21:55 58.050170 -21.503493 94 39135ft 544kts
02-Dec-17 21:56 58.042051 -21.219208 95 39127ft 544kts
02-Dec-17 21:57 58.033290 -20.934649 95 39131ft 544kts
02-Dec-17 21:58 58.023904 -20.650640 95 39134ft 544kts
02-Dec-17 21:59 58.013884 -20.366741 95 39136ft 544kts
02-Dec-17 22:00 58.002864 -20.083269 99 39129ft 542kts
02-Dec-17 22:01 57.965681 -19.810072 111 39133ft 538kts
02-Dec-17 22:02 57.919058 -19.544042 112 39135ft 537kts
02-Dec-17 22:03 57.871177 -19.278999 113 39127ft 535kts
02-Dec-17 22:04 57.822991 -19.016310 113 39268ft 534kts
02-Dec-17 22:05 57.773999 -18.752914 113 39347ft 535kts
02-Dec-17 22:06 57.724615 -18.491044 113 39351ft 535kts
02-Dec-17 22:07 57.675226 -18.232633 114 39342ft 534kts
02-Dec-17 22:08 57.624823 -17.972471 114 39346ft 534kts
02-Dec-17 22:09 57.573790 -17.712516 114 39348ft 534kts
02-Dec-17 22:10 57.522293 -17.453637 114 39350ft 534kts
02-Dec-17 22:11 57.470289 -17.195584 115 39342ft 533kts
02-Dec-17 22:12 57.417635 -16.937977 111 39352ft 540kts
02-Dec-17 22:13 57.363677 -16.676812 111 39347ft 542kts
02-Dec-17 22:14 57.310788 -16.424481 108 39331ft 510kts
02-Dec-17 22:15 57.258784 -16.178982 109 39354ft 520kts
02-Dec-17 22:16 57.205625 -15.931280 109 39346ft 518kts
02-Dec-17 22:17 57.152121 -15.684912 109 39350ft 519kts
02-Dec-17 22:18 57.098123 -15.439205 109 39351ft 519kts
02-Dec-17 22:19 57.043649 -15.194240 110 39349ft 519kts
02-Dec-17 22:20 56.996409 -14.946520 93 39351ft 512kts
02-Dec-17 22:21 56.985083 -14.687140 90 39352ft 511kts
02-Dec-17 22:22 56.972396 -14.428200 91 39352ft 510kts
02-Dec-17 22:23 56.959060 -14.169742 92 39350ft 511kts
02-Dec-17 22:24 56.941296 -13.911283 96 39353ft 513kts
02-Dec-17 22:25 56.916507 -13.654072 96 39371ft 513kts
02-Dec-17 22:26 56.891058 -13.397570 96 39346ft 514kts
02-Dec-17 22:27 56.865066 -13.141483 97 39341ft 514kts
02-Dec-17 22:28 56.838474 -12.885035 97 39343ft 514kts
02-Dec-17 22:29 56.811345 -12.628840 97 39344ft 514kts
02-Dec-17 22:30 56.783782 -12.373841 97 39345ft 514kts
02-Dec-17 22:31 56.755623 -12.118505 98 39342ft 515kts
02-Dec-17 22:32 56.731774 -11.906178 98 39343ft 515kts
02-Dec-17 22:33 56.697670 -11.608423 98 39345ft 515kts
02-Dec-17 22:34 56.667951 -11.354286 98 39346ft 515kts
02-Dec-17 22:35 56.642775 -11.142645 99 39344ft 516kts
02-Dec-17 22:36 56.612052 -10.888805 99 39344ft 516kts
02-Dec-17 22:37 56.575607 -10.593568 99 39346ft 516kts
02-Dec-17 22:38 56.544206 -10.343991 100 39355ft 523kts
02-Dec-17 22:39 56.516896 -10.130528 100 39343ft 524kts
02-Dec-17 22:40 56.465818 -9.836770 108 39348ft 527kts
02-Dec-17 22:41 56.423009 -9.631223 108 39347ft 526kts
02-Dec-17 22:42 56.370796 -9.384680 108 39373ft 526kts
02-Dec-17 22:43 56.318164 -9.139219 109 39374ft 527kts
02-Dec-17 22:44 56.265086 -8.894646 109 39374ft 526kts
02-Dec-17 22:45 56.211489 -8.650572 109 39377ft 526kts
02-Dec-17 22:46 56.157335 -8.406836 109 39378ft 526kts
02-Dec-17 22:47 56.103553 -8.167554 110 39375ft 526kts
02-Dec-17 22:48 56.048566 -7.925691 110 39376ft 526kts
02-Dec-17 22:49 55.993883 -7.687927 109 39373ft 511kts
02-Dec-17 22:50 55.939234 -7.452806 109 39380ft 516kts
02-Dec-17 22:51 55.883698 -7.216566 109 39366ft 518kts
02-Dec-17 22:52 55.827909 -6.981826 109 39368ft 517kts
02-Dec-17 22:53 55.771433 -6.746769 109 39343ft 517kts
02-Dec-17 22:54 55.714559 -6.512574 110 39345ft 518kts
02-Dec-17 22:55 55.657909 -6.281784 110 39341ft 518kts
02-Dec-17 22:56 55.599891 -6.047917 110 39344ft 518kts
02-Dec-17 22:57 55.541753 -5.816014 110 39399ft 519kts
02-Dec-17 22:58 55.483144 -5.584676 110 39400ft 518kts
02-Dec-17 22:59 55.423920 -5.353312 111 39403ft 519kts
02-Dec-17 23:00 55.364553 -5.123798 111 39365ft 520kts
02-Dec-17 23:01 55.304461 -4.893805 111 39349ft 519kts
02-Dec-17 23:02 55.243936 -4.664521 111 39349ft 519kts
02-Dec-17 23:03 55.182990 -4.435958 111 39351ft 519kts
02-Dec-17 23:04 55.121579 -4.207964 112 39349ft 520kts
02-Dec-17 23:05 55.059823 -3.980959 112 39350ft 520kts
02-Dec-17 23:06 54.997771 -3.755110 112 39340ft 518kts
02-Dec-17 23:07 54.935217 -3.529643 112 39271ft 517kts
02-Dec-17 23:08 54.876512 -3.320041 113 39258ft 517kts
02-Dec-17 23:09 54.814907 -3.102101 113 39285ft 518kts
02-Dec-17 23:10 54.751320 -2.879279 113 39288ft 517kts
02-Dec-17 23:11 54.687524 -2.657847 113 39290ft 516kts
02-Dec-17 23:12 54.623262 -2.436888 113 39264ft 516kts
02-Dec-17 23:13 54.559242 -2.218835 113 39255ft 506kts
02-Dec-17 23:14 54.495290 -2.002932 113 39266ft 509kts
02-Dec-17 23:15 54.430714 -1.786960 113 39265ft 508kts
02-Dec-17 23:16 54.365961 -1.572341 113 39266ft 509kts
02-Dec-17 23:17 54.300709 -1.357997 113 39274ft 508kts
02-Dec-17 23:18 54.235129 -1.144536 114 39280ft 509kts
02-Dec-17 23:19 54.169276 -0.932058 114 39293ft 508kts
02-Dec-17 23:20 54.102938 -0.719901 114 39273ft 509kts
02-Dec-17 23:21 54.036060 -0.508008 115 39271ft 509kts
02-Dec-17 23:22 53.964622 -0.300902 117 39268ft 510kts
02-Dec-17 23:23 53.893621 -0.098555 117 39266ft 510kts
02-Dec-17 23:24 53.820824 0.107106 117 39261ft 510kts
02-Dec-17 23:25 53.748386 0.310059 117 39262ft 510kts
02-Dec-17 23:26 53.674944 0.514146 117 39263ft 510kts
02-Dec-17 23:27 53.601068 0.717680 117 39264ft 507kts
02-Dec-17 23:28 53.527564 0.918721 117 39266ft 507kts
02-Dec-17 23:29 53.453391 1.119870 117 39264ft 506kts
02-Dec-17 23:30 53.379190 1.319505 117 39266ft 506kts
02-Dec-17 23:31 53.304624 1.518526 117 39267ft 506kts
02-Dec-17 23:32 53.230541 1.714709 118 39267ft 507kts
02-Dec-17 23:33 53.155212 1.912621 118 39268ft 507kts
02-Dec-17 23:34 53.079469 2.110074 118 39214ft 507kts
02-Dec-17 23:35 53.004079 2.305064 118 39214ft 501kts
02-Dec-17 23:36 52.928248 2.499732 118 39217ft 503kts
02-Dec-17 23:37 52.855561 2.684773 118 39207ft 485kts
02-Dec-17 23:38 52.782833 2.868791 118 39195ft 475kts
02-Dec-17 23:39 52.718485 3.055101 105 39219ft 464kts
02-Dec-17 23:40 52.672123 3.253134 106 39197ft 467kts
02-Dec-17 23:41 52.624236 3.454969 106 39218ft 479kts
02-Dec-17 23:42 52.575923 3.656568 107 39232ft 477kts
02-Dec-17 23:43 52.527179 3.858165 107 39221ft 479kts
02-Dec-17 23:44 52.478003 4.059649 107 39210ft 477kts
02-Dec-17 23:45 52.428586 4.260296 107 39211ft 477kts
02-Dec-17 23:46 52.378699 4.461009 107 39211ft 477kts
02-Dec-17 23:47 52.329974 4.655290 108 39224ft 476kts
02-Dec-17 23:48 52.279954 4.852995 108 39240ft 477kts
02-Dec-17 23:49 52.229507 5.050612 107 39238ft 475kts
02-Dec-17 23:50 52.179151 5.246178 107 39241ft 475kts
02-Dec-17 23:51 52.132949 5.445711 102 39244ft 471kts
02-Dec-17 23:52 52.092407 5.646063 103 39241ft 471kts
02-Dec-17 23:53 52.052677 5.838284 103 39243ft 472kts
02-Dec-17 23:54 52.011079 6.037380 103 39242ft 471kts
02-Dec-17 23:55 51.964475 6.234812 116 39237ft 478kts
02-Dec-17 23:56 51.884468 6.378406 131 39237ft 489kts
02-Dec-17 23:57 51.787972 6.529007 131 39234ft 488kts
02-Dec-17 23:58 51.691408 6.677938 131 39262ft 490kts
02-Dec-17 23:59 51.594887 6.825799 131 39262ft 489kts
03-Dec-17 00:00 51.493354 6.967323 145 39288ft 497kts
03-Dec-17 00:01 51.370299 7.068664 149 39292ft 500kts
03-Dec-17 00:02 51.247407 7.166739 148 37201ft 499kts
03-Dec-17 00:03 51.124062 7.264483 147 34341ft 500kts
03-Dec-17 00:04 51.005713 7.378914 142 31488ft 507kts
03-Dec-17 00:05 50.893399 7.488114 143 28728ft 505kts
03-Dec-17 00:06 50.777854 7.596677 149 27191ft 486kts
03-Dec-17 00:07 50.657076 7.678348 152 25328ft 477kts
03-Dec-17 00:08 50.537475 7.757657 152 23563ft 466kts
03-Dec-17 00:09 50.427791 7.848138 129 22135ft 425kts
03-Dec-17 00:10 50.352823 7.983990 121 20387ft 408kts
03-Dec-17 00:11 50.282158 8.118392 122 18742ft 399kts
03-Dec-17 00:12 50.221645 8.257486 117 17008ft 386kts
03-Dec-17 00:13 50.161645 8.394061 118 15428ft 379kts
03-Dec-17 00:14 50.103247 8.527065 114 14027ft 344kts
03-Dec-17 00:15 50.108985 8.639277 56 10697ft 257kts
03-Dec-17 00:16 50.150993 8.726023 36 9047ft 256kts
03-Dec-17 00:17 50.209480 8.786831 33 8317ft 252kts
03-Dec-17 00:18 50.261966 8.858335 80 7083ft 264kts
03-Dec-17 00:19 50.219054 8.921458 190 6178ft 250kts
03-Dec-17 00:20 50.154315 8.919639 169 5503ft 214kts
03-Dec-17 00:21 50.110497 8.873125 239 4315ft 219kts
03-Dec-17 00:22 50.088328 8.790232 248 3147ft 194kts
03-Dec-17 00:23 50.072701 8.723677 248 2246ft 148kts
03-Dec-17 00:24 50.059514 8.668153 247 1486ft 138kts
03-Dec-17 00:25 50.046214 8.612298 247 730ft 140kts
03-Dec-17 00:26 50.034166 8.561855 249 374ft 77kts
03-Dec-17 00:27 50.032178 8.546211 289 374ft 23kts
03-Dec-17 00:28 50.036611 8.543380 61 374ft 12kts
03-Dec-17 00:29 50.038906 8.552923 70 374ft 27kts
03-Dec-17 00:30 50.042018 8.560495 340 374ft 16kts
03-Dec-17 00:31 50.045449 8.559698 37 374ft 11kts
03-Dec-17 00:32 50.046711 8.560423 340 374ft 0kts
03-Dec-17 00:33 50.046740 8.560406 340 374ft 0kts
03-Dec-17 00:34 50.046740 8.560406 340 374ft 0kts
03-Dec-17 00:35 50.046740 8.560406 340 374ft 0kts
03-Dec-17 00:36 50.046740 8.560406 340 374ft 0kts
03-Dec-17 00:37 50.047020 8.561571 340 374ft 0kts
03-Dec-17 00:38 50.047020 8.561571 340 374ft 0kts
03-Dec-17 00:39 50.047020 8.561571 340 374ft 0kts
03-Dec-17 00:40 50.047020 8.561571 340 374ft 0kts
03-Dec-17 00:41 50.047020 8.561571 340 374ft 0kts

Navigation Log

Ident Type
Flight plan parsing failed, navigation log unavailable